Hlavní strana
METAR-TAF:

METAR-TAF

Letiště :

Ghriss, Alžírsko

zeměpisná šířka: 35-12N, zeměpisná délka: 000-08E, výška: 514 m

Aktuální stav počasí

Zpráva byla vytvořena před 39 minutami, v 23:00 UTC
Východojihovýchodní vítr 6 kt
Teplota 11°C
Vlhkost vzduchu 62%
Tlak 1030 hPa
Viditelnost 10 km a více
Žádná oblačnost pod 1500 m, nevyskytují se cumulonimby.

METAR: DAOV 242300Z 12006KT CAVOK 11/04 Q1030

Čas: 00:39 (23:39 UTC)

Předpověď počasí

Zpráva byla vytvořena před 3 hodinami a 39 minutami, v 20:00 UTC
Předpověď platná od 24 v 21 UTC do 25 v 06 UTC
vítr z různých směrů 2 kt
Viditelnost 10 km a více
Žádná oblačnost pod 1500 m, nevyskytují se cumulonimby.
Pravděpodobnost 40% :
Dočasný
od 25 v 02 UTC do 25 v 06 UTC
Viditelnost: 5000 m
Polojasno ve výšce 1600 ft
kouřmo

TAF: DAOV 242000Z 2421/2506 VRB02KT CAVOK PROB40 TEMPO 2502/2506 5000 BR SCT016

Stav a předpovědi počasí z více než 4 000 letišť (zprávy METAR a TAF).

Červené a žluté tečky na mapě představují dostupné meteorologické stanice.

Když kurzor umístíte na tečku, zobrazí se název stanice.

Pak kliknutím zobrazíte stav a předpověď počasí.

Chcete-li změnit mapu, kliknutím na zelené tlačítko se znaménkem +mapu přiblížíte, kliknutím na zelené tlačítko se znaménkem – mapu oddálíte a kliknutím na zelené šipky přejdete na sousední mapy.


METAR-TAF: